sensor_id;sensor_type;location;lat;lon;timestamp;temperature;humidity
69393;SHT31;56582;44.624;20.378;2022-09-19T00:01:34;15.92;67.18
69393;SHT31;56582;44.624;20.378;2022-09-19T00:04:08;15.97;66.18
69393;SHT31;56582;44.624;20.378;2022-09-19T00:06:36;16.03;64.84
69393;SHT31;56582;44.624;20.378;2022-09-19T00:09:03;15.96;66.59
69393;SHT31;56582;44.624;20.378;2022-09-19T00:11:29;16.02;66.52
69393;SHT31;56582;44.624;20.378;2022-09-19T00:13:55;16.04;65.91
69393;SHT31;56582;44.624;20.378;2022-09-19T00:16:28;16.09;65.36
69393;SHT31;56582;44.624;20.378;2022-09-19T00:18:56;15.99;65.72
69393;SHT31;56582;44.624;20.378;2022-09-19T00:23:49;15.82;66.82
69393;SHT31;56582;44.624;20.378;2022-09-19T00:26:33;15.92;66.43
69393;SHT31;56582;44.624;20.378;2022-09-19T00:28:59;16.12;65.80
69393;SHT31;56582;44.624;20.378;2022-09-19T00:31:24;15.99;64.58
69393;SHT31;56582;44.624;20.378;2022-09-19T00:33:50;16.06;65.46
69393;SHT31;56582;44.624;20.378;2022-09-19T00:36:16;16.13;65.59
69393;SHT31;56582;44.624;20.378;2022-09-19T00:38:42;16.21;65.05
69393;SHT31;56582;44.624;20.378;2022-09-19T00:41:10;16.07;65.86
69393;SHT31;56582;44.624;20.378;2022-09-19T00:43:53;15.97;65.46
69393;SHT31;56582;44.624;20.378;2022-09-19T00:46:21;15.92;65.34
69393;SHT31;56582;44.624;20.378;2022-09-19T00:48:50;15.86;65.36
69393;SHT31;56582;44.624;20.378;2022-09-19T00:51:22;15.93;66.00
69393;SHT31;56582;44.624;20.378;2022-09-19T00:53:48;15.93;64.13
69393;SHT31;56582;44.624;20.378;2022-09-19T00:56:14;15.75;66.23
69393;SHT31;56582;44.624;20.378;2022-09-19T00:58:43;15.81;66.44
69393;SHT31;56582;44.624;20.378;2022-09-19T01:01:11;15.86;66.98
69393;SHT31;56582;44.624;20.378;2022-09-19T01:03:37;15.79;66.76
69393;SHT31;56582;44.624;20.378;2022-09-19T01:16:52;15.82;66.90
69393;SHT31;56582;44.624;20.378;2022-09-19T01:30:07;15.96;66.17
69393;SHT31;56582;44.624;20.378;2022-09-19T01:32:40;15.96;65.00
69393;SHT31;56582;44.624;20.378;2022-09-19T01:35:10;16.00;66.04
69393;SHT31;56582;44.624;20.378;2022-09-19T01:37:45;15.83;66.57
69393;SHT31;56582;44.624;20.378;2022-09-19T01:40:13;15.65;65.94
69393;SHT31;56582;44.624;20.378;2022-09-19T01:42:53;15.78;66.36
69393;SHT31;56582;44.624;20.378;2022-09-19T01:45:32;15.75;65.51
69393;SHT31;56582;44.624;20.378;2022-09-19T01:48:03;15.45;65.63
69393;SHT31;56582;44.624;20.378;2022-09-19T01:59:04;15.28;67.06
69393;SHT31;56582;44.624;20.378;2022-09-19T02:01:46;15.36;68.04
69393;SHT31;56582;44.624;20.378;2022-09-19T02:04:21;15.15;65.00
69393;SHT31;56582;44.624;20.378;2022-09-19T02:10:21;15.28;67.21
69393;SHT31;56582;44.624;20.378;2022-09-19T02:12:51;15.52;65.56
69393;SHT31;56582;44.624;20.378;2022-09-19T02:15:22;15.63;65.91
69393;SHT31;56582;44.624;20.378;2022-09-19T02:17:57;15.54;63.87
69393;SHT31;56582;44.624;20.378;2022-09-19T02:20:28;15.27;65.59
69393;SHT31;56582;44.624;20.378;2022-09-19T02:22:59;15.41;65.71
69393;SHT31;56582;44.624;20.378;2022-09-19T02:25:28;15.41;65.91
69393;SHT31;56582;44.624;20.378;2022-09-19T02:28:02;15.39;65.44
69393;SHT31;56582;44.624;20.378;2022-09-19T02:30:29;15.42;64.30
69393;SHT31;56582;44.624;20.378;2022-09-19T02:32:56;15.31;66.40
69393;SHT31;56582;44.624;20.378;2022-09-19T02:35:29;15.31;63.30
69393;SHT31;56582;44.624;20.378;2022-09-19T02:44:13;15.65;65.72
69393;SHT31;56582;44.624;20.378;2022-09-19T02:49:53;15.75;64.33
69393;SHT31;56582;44.624;20.378;2022-09-19T02:52:31;15.69;65.49
69393;SHT31;56582;44.624;20.378;2022-09-19T02:55:03;15.67;65.71
69393;SHT31;56582;44.624;20.378;2022-09-19T02:57:30;15.66;65.27
69393;SHT31;56582;44.624;20.378;2022-09-19T02:59:58;15.42;65.87
69393;SHT31;56582;44.624;20.378;2022-09-19T03:02:32;15.34;67.26
69393;SHT31;56582;44.624;20.378;2022-09-19T03:05:02;15.66;66.29
69393;SHT31;56582;44.624;20.378;2022-09-19T03:07:38;15.65;66.04
69393;SHT31;56582;44.624;20.378;2022-09-19T03:10:10;15.78;66.56
69393;SHT31;56582;44.624;20.378;2022-09-19T03:12:49;15.70;66.16
69393;SHT31;56582;44.624;20.378;2022-09-19T03:15:24;15.78;65.08
69393;SHT31;56582;44.624;20.378;2022-09-19T03:17:52;15.46;64.10
69393;SHT31;56582;44.624;20.378;2022-09-19T03:20:19;15.72;67.25
69393;SHT31;56582;44.624;20.378;2022-09-19T03:22:47;15.70;66.24
69393;SHT31;56582;44.624;20.378;2022-09-19T03:25:13;15.62;66.57
69393;SHT31;56582;44.624;20.378;2022-09-19T03:27:40;15.67;68.39
69393;SHT31;56582;44.624;20.378;2022-09-19T03:30:11;15.69;69.27
69393;SHT31;56582;44.624;20.378;2022-09-19T03:32:37;15.78;71.15
69393;SHT31;56582;44.624;20.378;2022-09-19T03:35:03;15.70;71.30
69393;SHT31;56582;44.624;20.378;2022-09-19T03:37:30;15.85;71.13
69393;SHT31;56582;44.624;20.378;2022-09-19T03:40:00;15.65;68.39
69393;SHT31;56582;44.624;20.378;2022-09-19T03:42:27;15.58;71.22
69393;SHT31;56582;44.624;20.378;2022-09-19T03:44:53;15.28;67.14
69393;SHT31;56582;44.624;20.378;2022-09-19T03:47:19;15.31;70.17
69393;SHT31;56582;44.624;20.378;2022-09-19T03:49:49;15.35;70.42
69393;SHT31;56582;44.624;20.378;2022-09-19T03:52:19;15.62;69.02
69393;SHT31;56582;44.624;20.378;2022-09-19T03:54:45;15.75;69.89
69393;SHT31;56582;44.624;20.378;2022-09-19T03:57:12;15.72;68.17
69393;SHT31;56582;44.624;20.378;2022-09-19T03:59:38;15.46;68.60
69393;SHT31;56582;44.624;20.378;2022-09-19T04:02:10;15.41;68.24
69393;SHT31;56582;44.624;20.378;2022-09-19T04:04:36;15.32;68.28
69393;SHT31;56582;44.624;20.378;2022-09-19T04:07:03;15.44;67.44
69393;SHT31;56582;44.624;20.378;2022-09-19T04:09:28;15.75;69.64
69393;SHT31;56582;44.624;20.378;2022-09-19T04:11:53;15.94;68.89
69393;SHT31;56582;44.624;20.378;2022-09-19T04:14:21;15.15;67.06
69393;SHT31;56582;44.624;20.378;2022-09-19T04:16:46;14.76;69.80
69393;SHT31;56582;44.624;20.378;2022-09-19T04:19:12;14.29;66.11
69393;SHT31;56582;44.624;20.378;2022-09-19T04:21:40;14.19;69.51
69393;SHT31;56582;44.624;20.378;2022-09-19T04:24:08;13.66;63.88
69393;SHT31;56582;44.624;20.378;2022-09-19T04:26:33;13.15;66.19
69393;SHT31;56582;44.624;20.378;2022-09-19T04:28:59;13.09;67.00
69393;SHT31;56582;44.624;20.378;2022-09-19T04:31:30;13.09;69.14
69393;SHT31;56582;44.624;20.378;2022-09-19T04:34:09;13.08;72.70
69393;SHT31;56582;44.624;20.378;2022-09-19T04:36:42;13.06;71.25
69393;SHT31;56582;44.624;20.378;2022-09-19T04:39:09;12.78;69.26
69393;SHT31;56582;44.624;20.378;2022-09-19T04:41:36;12.87;73.74
69393;SHT31;56582;44.624;20.378;2022-09-19T04:44:04;12.84;70.42
69393;SHT31;56582;44.624;20.378;2022-09-19T04:46:31;12.98;74.87
69393;SHT31;56582;44.624;20.378;2022-09-19T04:48:58;12.99;70.89
69393;SHT31;56582;44.624;20.378;2022-09-19T04:51:25;13.11;70.05
69393;SHT31;56582;44.624;20.378;2022-09-19T04:53:52;13.16;71.73
69393;SHT31;56582;44.624;20.378;2022-09-19T04:56:18;13.20;72.32
69393;SHT31;56582;44.624;20.378;2022-09-19T04:58:46;13.23;70.53
69393;SHT31;56582;44.624;20.378;2022-09-19T05:01:12;13.16;66.69
69393;SHT31;56582;44.624;20.378;2022-09-19T05:03:39;13.26;69.77
69393;SHT31;56582;44.624;20.378;2022-09-19T05:06:08;13.20;67.50
69393;SHT31;56582;44.624;20.378;2022-09-19T05:08:34;13.06;69.25
69393;SHT31;56582;44.624;20.378;2022-09-19T05:11:01;12.77;65.69
69393;SHT31;56582;44.624;20.378;2022-09-19T05:13:29;12.36;63.82
69393;SHT31;56582;44.624;20.378;2022-09-19T05:15:56;12.50;67.88
69393;SHT31;56582;44.624;20.378;2022-09-19T05:18:22;12.55;65.66
69393;SHT31;56582;44.624;20.378;2022-09-19T05:20:49;12.71;64.86
69393;SHT31;56582;44.624;20.378;2022-09-19T05:23:15;12.87;67.77
69393;SHT31;56582;44.624;20.378;2022-09-19T05:25:41;12.57;64.74
69393;SHT31;56582;44.624;20.378;2022-09-19T05:28:07;12.74;63.85
69393;SHT31;56582;44.624;20.378;2022-09-19T05:30:35;12.69;66.51
69393;SHT31;56582;44.624;20.378;2022-09-19T05:33:02;12.88;69.00
69393;SHT31;56582;44.624;20.378;2022-09-19T05:35:29;13.08;67.71
69393;SHT31;56582;44.624;20.378;2022-09-19T05:37:55;13.16;67.62
69393;SHT31;56582;44.624;20.378;2022-09-19T05:40:21;13.20;66.41
69393;SHT31;56582;44.624;20.378;2022-09-19T05:42:47;13.42;65.40
69393;SHT31;56582;44.624;20.378;2022-09-19T05:45:13;13.46;67.47
69393;SHT31;56582;44.624;20.378;2022-09-19T05:47:40;13.51;69.93
69393;SHT31;56582;44.624;20.378;2022-09-19T05:50:12;13.64;71.18
69393;SHT31;56582;44.624;20.378;2022-09-19T05:52:40;13.82;69.59
69393;SHT31;56582;44.624;20.378;2022-09-19T05:55:26;13.88;66.56
69393;SHT31;56582;44.624;20.378;2022-09-19T05:57:53;14.02;64.38
69393;SHT31;56582;44.624;20.378;2022-09-19T06:00:20;14.04;67.06
69393;SHT31;56582;44.624;20.378;2022-09-19T06:02:58;14.11;69.56
69393;SHT31;56582;44.624;20.378;2022-09-19T06:05:24;14.09;70.74
69393;SHT31;56582;44.624;20.378;2022-09-19T06:07:50;13.97;69.79
69393;SHT31;56582;44.624;20.378;2022-09-19T06:10:18;14.12;69.93
69393;SHT31;56582;44.624;20.378;2022-09-19T06:12:43;14.22;71.73
69393;SHT31;56582;44.624;20.378;2022-09-19T06:15:09;14.21;72.59
69393;SHT31;56582;44.624;20.378;2022-09-19T06:17:35;14.26;69.61
69393;SHT31;56582;44.624;20.378;2022-09-19T06:20:01;14.30;70.00
69393;SHT31;56582;44.624;20.378;2022-09-19T06:22:26;14.38;70.65
69393;SHT31;56582;44.624;20.378;2022-09-19T06:24:51;14.33;72.11
69393;SHT31;56582;44.624;20.378;2022-09-19T06:27:17;14.46;70.75
69393;SHT31;56582;44.624;20.378;2022-09-19T06:29:42;14.62;71.51
69393;SHT31;56582;44.624;20.378;2022-09-19T06:32:08;14.57;69.78
69393;SHT31;56582;44.624;20.378;2022-09-19T06:34:34;14.42;73.57
69393;SHT31;56582;44.624;20.378;2022-09-19T06:37:00;14.55;72.87
69393;SHT31;56582;44.624;20.378;2022-09-19T06:39:25;14.67;75.68
69393;SHT31;56582;44.624;20.378;2022-09-19T06:41:51;14.53;74.58
69393;SHT31;56582;44.624;20.378;2022-09-19T06:44:16;14.53;74.52
69393;SHT31;56582;44.624;20.378;2022-09-19T06:46:42;14.53;73.79
69393;SHT31;56582;44.624;20.378;2022-09-19T06:49:08;14.45;73.57
69393;SHT31;56582;44.624;20.378;2022-09-19T06:51:34;14.46;74.08
69393;SHT31;56582;44.624;20.378;2022-09-19T06:54:00;14.48;74.63
69393;SHT31;56582;44.624;20.378;2022-09-19T06:56:25;14.40;75.52
69393;SHT31;56582;44.624;20.378;2022-09-19T06:58:51;14.35;74.88
69393;SHT31;56582;44.624;20.378;2022-09-19T07:01:16;14.29;75.15
69393;SHT31;56582;44.624;20.378;2022-09-19T07:03:43;14.35;74.50
69393;SHT31;56582;44.624;20.378;2022-09-19T07:06:08;14.42;74.57
69393;SHT31;56582;44.624;20.378;2022-09-19T07:08:33;14.46;72.68
69393;SHT31;56582;44.624;20.378;2022-09-19T07:10:59;14.49;74.71
69393;SHT31;56582;44.624;20.378;2022-09-19T07:13:25;14.53;75.36
69393;SHT31;56582;44.624;20.378;2022-09-19T07:15:50;14.56;75.57
69393;SHT31;56582;44.624;20.378;2022-09-19T07:18:16;14.57;76.20
69393;SHT31;56582;44.624;20.378;2022-09-19T07:20:41;14.76;75.26
69393;SHT31;56582;44.624;20.378;2022-09-19T07:23:13;14.87;73.98
69393;SHT31;56582;44.624;20.378;2022-09-19T07:25:40;14.84;75.82
69393;SHT31;56582;44.624;20.378;2022-09-19T07:28:09;14.97;75.88
69393;SHT31;56582;44.624;20.378;2022-09-19T07:30:36;14.80;73.71
69393;SHT31;56582;44.624;20.378;2022-09-19T07:33:03;15.00;74.53
69393;SHT31;56582;44.624;20.378;2022-09-19T07:35:32;15.03;70.38
69393;SHT31;56582;44.624;20.378;2022-09-19T07:37:58;15.08;71.10
69393;SHT31;56582;44.624;20.378;2022-09-19T07:40:23;15.18;70.46
69393;SHT31;56582;44.624;20.378;2022-09-19T07:42:49;15.31;69.94
69393;SHT31;56582;44.624;20.378;2022-09-19T07:45:17;15.20;69.04
69393;SHT31;56582;44.624;20.378;2022-09-19T07:47:46;15.48;70.21
69393;SHT31;56582;44.624;20.378;2022-09-19T07:50:17;15.66;69.51
69393;SHT31;56582;44.624;20.378;2022-09-19T07:52:44;15.78;69.05
69393;SHT31;56582;44.624;20.378;2022-09-19T07:55:13;15.92;68.12
69393;SHT31;56582;44.624;20.378;2022-09-19T07:57:49;15.94;68.22
69393;SHT31;56582;44.624;20.378;2022-09-19T08:00:15;16.30;67.58
69393;SHT31;56582;44.624;20.378;2022-09-19T08:02:40;16.34;66.89
69393;SHT31;56582;44.624;20.378;2022-09-19T08:05:06;16.37;65.40
69393;SHT31;56582;44.624;20.378;2022-09-19T08:07:31;16.62;65.08
69393;SHT31;56582;44.624;20.378;2022-09-19T08:09:57;16.81;64.02
69393;SHT31;56582;44.624;20.378;2022-09-19T08:12:22;16.75;65.25
69393;SHT31;56582;44.624;20.378;2022-09-19T08:14:48;16.81;64.60
69393;SHT31;56582;44.624;20.378;2022-09-19T08:17:14;16.89;64.23
69393;SHT31;56582;44.624;20.378;2022-09-19T08:19:40;16.95;63.61
69393;SHT31;56582;44.624;20.378;2022-09-19T08:22:05;17.20;61.30
69393;SHT31;56582;44.624;20.378;2022-09-19T08:24:31;17.23;62.27
69393;SHT31;56582;44.624;20.378;2022-09-19T08:26:57;17.29;63.83
69393;SHT31;56582;44.624;20.378;2022-09-19T08:29:23;17.44;62.03
69393;SHT31;56582;44.624;20.378;2022-09-19T08:31:51;17.30;62.61
69393;SHT31;56582;44.624;20.378;2022-09-19T08:34:16;17.27;63.84
69393;SHT31;56582;44.624;20.378;2022-09-19T08:36:41;17.37;63.20
69393;SHT31;56582;44.624;20.378;2022-09-19T08:39:07;17.22;64.79
69393;SHT31;56582;44.624;20.378;2022-09-19T08:41:51;17.43;64.51
69393;SHT31;56582;44.624;20.378;2022-09-19T08:47:23;17.74;62.69
69393;SHT31;56582;44.624;20.378;2022-09-19T08:49:56;17.94;61.83
69393;SHT31;56582;44.624;20.378;2022-09-19T08:52:45;17.97;62.66
69393;SHT31;56582;44.624;20.378;2022-09-19T08:55:36;17.87;61.29
69393;SHT31;56582;44.624;20.378;2022-09-19T09:00:37;17.60;60.67
69393;SHT31;56582;44.624;20.378;2022-09-19T09:03:12;17.84;61.85
69393;SHT31;56582;44.624;20.378;2022-09-19T09:08:21;16.68;63.20
69393;SHT31;56582;44.624;20.378;2022-09-19T09:13:40;15.70;66.24
69393;SHT31;56582;44.624;20.378;2022-09-19T09:19:21;15.12;67.65
69393;SHT31;56582;44.624;20.378;2022-09-19T09:22:11;14.63;69.61
69393;SHT31;56582;44.624;20.378;2022-09-19T09:24:45;14.12;71.70
69393;SHT31;56582;44.624;20.378;2022-09-19T09:27:17;14.04;73.35
69393;SHT31;56582;44.624;20.378;2022-09-19T09:29:54;13.44;75.22
69393;SHT31;56582;44.624;20.378;2022-09-19T09:32:34;13.35;77.04
69393;SHT31;56582;44.624;20.378;2022-09-19T09:35:10;13.19;78.40
69393;SHT31;56582;44.624;20.378;2022-09-19T09:37:43;13.35;78.63
69393;SHT31;56582;44.624;20.378;2022-09-19T09:40:18;12.84;77.53
69393;SHT31;56582;44.624;20.378;2022-09-19T09:43:08;12.85;78.79
69393;SHT31;56582;44.624;20.378;2022-09-19T09:45:44;12.61;79.01
69393;SHT31;56582;44.624;20.378;2022-09-19T09:57:13;13.09;76.62
69393;SHT31;56582;44.624;20.378;2022-09-19T10:00:29;12.64;77.98
69393;SHT31;56582;44.624;20.378;2022-09-19T10:03:21;12.92;77.70
69393;SHT31;56582;44.624;20.378;2022-09-19T10:06:10;12.67;78.69
69393;SHT31;56582;44.624;20.378;2022-09-19T10:11:44;13.15;78.99
69393;SHT31;56582;44.624;20.378;2022-09-19T10:14:16;13.05;78.38
69393;SHT31;56582;44.624;20.378;2022-09-19T10:16:46;12.82;78.64
69393;SHT31;56582;44.624;20.378;2022-09-19T10:21:38;13.13;78.43
69393;SHT31;56582;44.624;20.378;2022-09-19T10:24:41;12.69;79.32
69393;SHT31;56582;44.624;20.378;2022-09-19T10:29:57;12.53;79.99
69393;SHT31;56582;44.624;20.378;2022-09-19T10:32:34;12.54;80.54
69393;SHT31;56582;44.624;20.378;2022-09-19T10:35:26;12.33;81.06
69393;SHT31;56582;44.624;20.378;2022-09-19T10:38:10;12.41;81.97
69393;SHT31;56582;44.624;20.378;2022-09-19T10:41:08;12.54;82.49
69393;SHT31;56582;44.624;20.378;2022-09-19T10:43:46;12.61;81.18
69393;SHT31;56582;44.624;20.378;2022-09-19T10:46:19;12.12;83.18
69393;SHT31;56582;44.624;20.378;2022-09-19T10:48:56;12.57;83.06
69393;SHT31;56582;44.624;20.378;2022-09-19T10:51:35;12.20;83.33
69393;SHT31;56582;44.624;20.378;2022-09-19T10:54:26;12.65;83.65
69393;SHT31;56582;44.624;20.378;2022-09-19T10:56:52;12.62;84.08
69393;SHT31;56582;44.624;20.378;2022-09-19T10:59:32;12.65;83.20
69393;SHT31;56582;44.624;20.378;2022-09-19T11:04:53;13.16;84.11
69393;SHT31;56582;44.624;20.378;2022-09-19T11:07:23;13.11;85.71
69393;SHT31;56582;44.624;20.378;2022-09-19T11:09:53;13.02;85.93
69393;SHT31;56582;44.624;20.378;2022-09-19T11:12:24;12.92;87.48
69393;SHT31;56582;44.624;20.378;2022-09-19T11:14:55;12.75;88.29
69393;SHT31;56582;44.624;20.378;2022-09-19T11:18:42;13.30;85.83
69393;SHT31;56582;44.624;20.378;2022-09-19T11:20:57;13.44;85.38
69393;SHT31;56582;44.624;20.378;2022-09-19T11:37:35;13.85;84.25
69393;SHT31;56582;44.624;20.378;2022-09-19T11:43:25;14.01;82.70
69393;SHT31;56582;44.624;20.378;2022-09-19T11:46:32;13.87;81.52
69393;SHT31;56582;44.624;20.378;2022-09-19T11:57:25;13.18;82.70
69393;SHT31;56582;44.624;20.378;2022-09-19T12:05:50;13.46;83.55
69393;SHT31;56582;44.624;20.378;2022-09-19T12:11:15;13.64;83.58
69393;SHT31;56582;44.624;20.378;2022-09-19T12:13:58;13.87;81.84
69393;SHT31;56582;44.624;20.378;2022-09-19T12:19:11;13.69;82.34
69393;SHT31;56582;44.624;20.378;2022-09-19T12:21:48;13.91;81.46
69393;SHT31;56582;44.624;20.378;2022-09-19T12:24:19;13.73;81.69
69393;SHT31;56582;44.624;20.378;2022-09-19T12:27:10;13.97;81.11
69393;SHT31;56582;44.624;20.378;2022-09-19T12:29:49;14.24;81.67
69393;SHT31;56582;44.624;20.378;2022-09-19T12:35:23;13.88;81.85
69393;SHT31;56582;44.624;20.378;2022-09-19T12:38:32;13.91;81.62
69393;SHT31;56582;44.624;20.378;2022-09-19T12:41:08;13.88;81.37
69393;SHT31;56582;44.624;20.378;2022-09-19T12:54:40;13.85;81.32
69393;SHT31;56582;44.624;20.378;2022-09-19T12:57:16;14.00;81.02
69393;SHT31;56582;44.624;20.378;2022-09-19T12:59:47;13.87;81.52
69393;SHT31;56582;44.624;20.378;2022-09-19T13:02:32;13.95;80.57
69393;SHT31;56582;44.624;20.378;2022-09-19T13:10:23;14.01;80.34
69393;SHT31;56582;44.624;20.378;2022-09-19T13:15:59;13.97;79.92
69393;SHT31;56582;44.624;20.378;2022-09-19T13:18:28;13.95;80.63
69393;SHT31;56582;44.624;20.378;2022-09-19T13:21:21;13.91;80.71
69393;SHT31;56582;44.624;20.378;2022-09-19T13:24:07;14.04;79.82
69393;SHT31;56582;44.624;20.378;2022-09-19T13:26:37;13.97;80.25
69393;SHT31;56582;44.624;20.378;2022-09-19T13:51:02;13.30;81.59
69393;SHT31;56582;44.624;20.378;2022-09-19T13:56:49;13.02;82.88
69393;SHT31;56582;44.624;20.378;2022-09-19T14:01:37;12.99;83.95
69393;SHT31;56582;44.624;20.378;2022-09-19T14:04:14;13.16;82.84
69393;SHT31;56582;44.624;20.378;2022-09-19T14:07:00;13.30;83.53
69393;SHT31;56582;44.624;20.378;2022-09-19T14:11:52;13.57;82.72
69393;SHT31;56582;44.624;20.378;2022-09-19T14:17:30;13.63;82.64
69393;SHT31;56582;44.624;20.378;2022-09-19T14:19:59;13.80;81.43
69393;SHT31;56582;44.624;20.378;2022-09-19T14:25:19;14.18;80.48
69393;SHT31;56582;44.624;20.378;2022-09-19T14:36:35;13.81;81.21
69393;SHT31;56582;44.624;20.378;2022-09-19T14:45:26;14.84;78.51
69393;SHT31;56582;44.624;20.378;2022-09-19T14:48:04;15.04;77.83
69393;SHT31;56582;44.624;20.378;2022-09-19T14:50:39;15.31;76.88
69393;SHT31;56582;44.624;20.378;2022-09-19T14:53:26;15.67;77.09
69393;SHT31;56582;44.624;20.378;2022-09-19T14:56:01;15.96;76.34
69393;SHT31;56582;44.624;20.378;2022-09-19T14:58:32;16.13;75.95
69393;SHT31;56582;44.624;20.378;2022-09-19T15:01:10;16.40;74.59
69393;SHT31;56582;44.624;20.378;2022-09-19T15:06:29;16.47;72.67
69393;SHT31;56582;44.624;20.378;2022-09-19T15:08:55;15.65;73.73
69393;SHT31;56582;44.624;20.378;2022-09-19T15:11:22;15.94;74.57
69393;SHT31;56582;44.624;20.378;2022-09-19T15:13:48;15.87;74.44
69393;SHT31;56582;44.624;20.378;2022-09-19T15:16:15;15.96;73.57
69393;SHT31;56582;44.624;20.378;2022-09-19T15:18:43;16.27;73.20
69393;SHT31;56582;44.624;20.378;2022-09-19T15:21:14;16.41;72.51
69393;SHT31;56582;44.624;20.378;2022-09-19T15:23:42;16.51;72.18
69393;SHT31;56582;44.624;20.378;2022-09-19T15:26:13;16.23;72.57
69393;SHT31;56582;44.624;20.378;2022-09-19T15:28:40;15.63;73.76
69393;SHT31;56582;44.624;20.378;2022-09-19T15:33:37;15.97;73.73
69393;SHT31;56582;44.624;20.378;2022-09-19T15:36:03;15.78;73.70
69393;SHT31;56582;44.624;20.378;2022-09-19T15:38:36;15.51;75.15
69393;SHT31;56582;44.624;20.378;2022-09-19T15:41:06;15.63;74.53
69393;SHT31;56582;44.624;20.378;2022-09-19T15:43:44;15.32;75.52
69393;SHT31;56582;44.624;20.378;2022-09-19T15:48:59;15.55;74.89
69393;SHT31;56582;44.624;20.378;2022-09-19T15:51:35;15.49;75.32
69393;SHT31;56582;44.624;20.378;2022-09-19T15:54:15;15.23;75.88
69393;SHT31;56582;44.624;20.378;2022-09-19T15:56:44;14.93;76.77
69393;SHT31;56582;44.624;20.378;2022-09-19T15:59:14;15.03;76.56
69393;SHT31;56582;44.624;20.378;2022-09-19T16:01:46;15.21;75.85
69393;SHT31;56582;44.624;20.378;2022-09-19T16:04:20;15.75;74.14
69393;SHT31;56582;44.624;20.378;2022-09-19T16:09:46;15.31;75.97
69393;SHT31;56582;44.624;20.378;2022-09-19T16:14:46;14.46;78.57
69393;SHT31;56582;44.624;20.378;2022-09-19T16:17:13;14.80;77.53
69393;SHT31;56582;44.624;20.378;2022-09-19T16:19:48;15.56;74.93
69393;SHT31;56582;44.624;20.378;2022-09-19T16:22:20;15.35;75.00
69393;SHT31;56582;44.624;20.378;2022-09-19T16:24:50;15.06;75.95
69393;SHT31;56582;44.624;20.378;2022-09-19T16:27:22;15.82;73.73
69393;SHT31;56582;44.624;20.378;2022-09-19T16:29:50;15.75;73.51
69393;SHT31;56582;44.624;20.378;2022-09-19T16:32:17;16.18;72.83
69393;SHT31;56582;44.624;20.378;2022-09-19T16:34:52;16.81;71.02
69393;SHT31;56582;44.624;20.378;2022-09-19T16:37:31;16.16;72.19
69393;SHT31;56582;44.624;20.378;2022-09-19T16:39:59;15.21;74.71
69393;SHT31;56582;44.624;20.378;2022-09-19T16:42:30;14.43;77.59
69393;SHT31;56582;44.624;20.378;2022-09-19T16:45:20;14.36;78.11
69393;SHT31;56582;44.624;20.378;2022-09-19T16:47:47;14.02;78.74
69393;SHT31;56582;44.624;20.378;2022-09-19T16:50:16;14.35;79.00
69393;SHT31;56582;44.624;20.378;2022-09-19T16:52:47;14.55;77.97
69393;SHT31;56582;44.624;20.378;2022-09-19T16:55:25;14.28;78.96
69393;SHT31;56582;44.624;20.378;2022-09-19T16:57:59;14.11;80.39
69393;SHT31;56582;44.624;20.378;2022-09-19T17:00:27;13.91;80.07
69393;SHT31;56582;44.624;20.378;2022-09-19T17:02:54;13.95;80.04
69393;SHT31;56582;44.624;20.378;2022-09-19T17:05:27;13.87;80.00
69393;SHT31;56582;44.624;20.378;2022-09-19T17:07:54;13.51;81.27
69393;SHT31;56582;44.624;20.378;2022-09-19T17:10:20;13.77;79.84
69393;SHT31;56582;44.624;20.378;2022-09-19T17:12:46;14.02;80.24
69393;SHT31;56582;44.624;20.378;2022-09-19T17:15:31;13.61;79.84
69393;SHT31;56582;44.624;20.378;2022-09-19T17:18:01;13.33;81.29
69393;SHT31;56582;44.624;20.378;2022-09-19T17:20:26;13.40;81.96
69393;SHT31;56582;44.624;20.378;2022-09-19T17:22:53;13.09;81.84
69393;SHT31;56582;44.624;20.378;2022-09-19T17:28:13;12.92;82.21
69393;SHT31;56582;44.624;20.378;2022-09-19T17:30:39;12.71;83.05
69393;SHT31;56582;44.624;20.378;2022-09-19T17:33:05;12.53;85.30
69393;SHT31;56582;44.624;20.378;2022-09-19T17:35:31;13.09;85.65
69393;SHT31;56582;44.624;20.378;2022-09-19T17:37:56;13.27;84.08
69393;SHT31;56582;44.624;20.378;2022-09-19T17:40:24;13.18;83.22
69393;SHT31;56582;44.624;20.378;2022-09-19T17:42:51;13.22;84.03
69393;SHT31;56582;44.624;20.378;2022-09-19T17:45:17;13.38;83.77
69393;SHT31;56582;44.624;20.378;2022-09-19T17:47:43;13.43;83.51
69393;SHT31;56582;44.624;20.378;2022-09-19T17:50:08;14.05;82.93
69393;SHT31;56582;44.624;20.378;2022-09-19T17:52:35;13.70;80.36
69393;SHT31;56582;44.624;20.378;2022-09-19T17:55:02;14.26;81.34
69393;SHT31;56582;44.624;20.378;2022-09-19T17:57:27;14.45;79.86
69393;SHT31;56582;44.624;20.378;2022-09-19T17:59:53;14.63;78.59
69393;SHT31;56582;44.624;20.378;2022-09-19T18:02:18;15.00;78.61
69393;SHT31;56582;44.624;20.378;2022-09-19T18:05:02;15.38;77.94
69393;SHT31;56582;44.624;20.378;2022-09-19T18:07:28;15.34;76.71
69393;SHT31;56582;44.624;20.378;2022-09-19T18:09:57;14.93;76.88
69393;SHT31;56582;44.624;20.378;2022-09-19T18:12:22;14.36;79.14
69393;SHT31;56582;44.624;20.378;2022-09-19T18:14:48;13.81;78.11
69393;SHT31;56582;44.624;20.378;2022-09-19T18:17:14;14.46;80.63
69393;SHT31;56582;44.624;20.378;2022-09-19T18:19:39;14.75;79.44
69393;SHT31;56582;44.624;20.378;2022-09-19T18:22:05;15.06;78.64
69393;SHT31;56582;44.624;20.378;2022-09-19T18:24:31;15.42;77.63
69393;SHT31;56582;44.624;20.378;2022-09-19T18:26:57;15.73;76.30
69393;SHT31;56582;44.624;20.378;2022-09-19T18:29:22;15.97;74.61
69393;SHT31;56582;44.624;20.378;2022-09-19T18:31:49;16.13;74.60
69393;SHT31;56582;44.624;20.378;2022-09-19T18:34:14;16.20;74.40
69393;SHT31;56582;44.624;20.378;2022-09-19T18:36:40;16.12;74.48
69393;SHT31;56582;44.624;20.378;2022-09-19T18:39:05;16.24;74.24
69393;SHT31;56582;44.624;20.378;2022-09-19T18:41:31;16.07;74.74
69393;SHT31;56582;44.624;20.378;2022-09-19T18:43:57;16.28;73.71
69393;SHT31;56582;44.624;20.378;2022-09-19T18:46:24;16.35;73.79
69393;SHT31;56582;44.624;20.378;2022-09-19T18:48:52;16.13;74.29
69393;SHT31;56582;44.624;20.378;2022-09-19T18:51:22;16.23;74.15
69393;SHT31;56582;44.624;20.378;2022-09-19T18:53:50;16.23;74.00
69393;SHT31;56582;44.624;20.378;2022-09-19T18:56:17;16.17;72.64
69393;SHT31;56582;44.624;20.378;2022-09-19T18:58:43;16.03;72.68
69393;SHT31;56582;44.624;20.378;2022-09-19T19:01:10;15.89;74.97
69393;SHT31;56582;44.624;20.378;2022-09-19T19:03:39;15.72;74.96